sensor_id;sensor_type;location;lat;lon;timestamp;temperature;humidity
15341;DHT22;7770;52.158;5.372;2022-10-16T00:02:39;12.90;99.90
15341;DHT22;7770;52.158;5.372;2022-10-16T00:05:25;12.90;99.90
15341;DHT22;7770;52.158;5.372;2022-10-16T00:08:11;12.90;99.90
15341;DHT22;7770;52.158;5.372;2022-10-16T00:11:07;12.90;99.90
15341;DHT22;7770;52.158;5.372;2022-10-16T00:13:59;12.90;99.90
15341;DHT22;7770;52.158;5.372;2022-10-16T00:16:46;12.90;99.90
15341;DHT22;7770;52.158;5.372;2022-10-16T00:19:32;12.80;99.90
15341;DHT22;7770;52.158;5.372;2022-10-16T00:22:18;12.80;99.90
15341;DHT22;7770;52.158;5.372;2022-10-16T00:25:04;12.80;99.90
15341;DHT22;7770;52.158;5.372;2022-10-16T00:27:50;12.70;99.90
15341;DHT22;7770;52.158;5.372;2022-10-16T00:30:39;12.70;99.90
15341;DHT22;7770;52.158;5.372;2022-10-16T00:33:25;12.70;99.90
15341;DHT22;7770;52.158;5.372;2022-10-16T00:36:14;12.70;99.90
15341;DHT22;7770;52.158;5.372;2022-10-16T00:39:02;12.70;99.90
15341;DHT22;7770;52.158;5.372;2022-10-16T00:41:48;12.80;99.90
15341;DHT22;7770;52.158;5.372;2022-10-16T00:44:52;12.80;99.90
15341;DHT22;7770;52.158;5.372;2022-10-16T00:47:43;12.90;99.90
15341;DHT22;7770;52.158;5.372;2022-10-16T00:50:33;13.00;99.90
15341;DHT22;7770;52.158;5.372;2022-10-16T00:53:19;12.90;99.90
15341;DHT22;7770;52.158;5.372;2022-10-16T00:56:06;12.90;99.90
15341;DHT22;7770;52.158;5.372;2022-10-16T00:58:52;13.00;99.90
15341;DHT22;7770;52.158;5.372;2022-10-16T01:01:38;13.00;99.90
15341;DHT22;7770;52.158;5.372;2022-10-16T01:04:25;13.10;99.90
15341;DHT22;7770;52.158;5.372;2022-10-16T01:07:34;13.10;99.90
15341;DHT22;7770;52.158;5.372;2022-10-16T01:10:33;13.10;99.90
15341;DHT22;7770;52.158;5.372;2022-10-16T01:13:29;13.20;99.90
15341;DHT22;7770;52.158;5.372;2022-10-16T01:16:34;13.20;99.90
15341;DHT22;7770;52.158;5.372;2022-10-16T01:23:04;13.30;99.90
15341;DHT22;7770;52.158;5.372;2022-10-16T01:36:13;13.30;99.90
15341;DHT22;7770;52.158;5.372;2022-10-16T01:39:02;13.30;99.90
15341;DHT22;7770;52.158;5.372;2022-10-16T01:41:54;13.30;99.90
15341;DHT22;7770;52.158;5.372;2022-10-16T01:44:42;13.30;99.90
15341;DHT22;7770;52.158;5.372;2022-10-16T01:47:30;13.30;99.90
15341;DHT22;7770;52.158;5.372;2022-10-16T01:50:18;13.30;99.90
15341;DHT22;7770;52.158;5.372;2022-10-16T01:53:05;13.30;99.90
15341;DHT22;7770;52.158;5.372;2022-10-16T01:55:54;13.30;99.90
15341;DHT22;7770;52.158;5.372;2022-10-16T01:58:51;13.30;99.90
15341;DHT22;7770;52.158;5.372;2022-10-16T02:01:42;13.30;99.90
15341;DHT22;7770;52.158;5.372;2022-10-16T02:04:38;13.30;99.90
15341;DHT22;7770;52.158;5.372;2022-10-16T02:07:26;13.30;99.90
15341;DHT22;7770;52.158;5.372;2022-10-16T02:10:12;13.30;99.90
15341;DHT22;7770;52.158;5.372;2022-10-16T02:13:22;13.30;99.90
15341;DHT22;7770;52.158;5.372;2022-10-16T02:16:12;13.30;99.90
15341;DHT22;7770;52.158;5.372;2022-10-16T02:18:59;13.30;99.90
15341;DHT22;7770;52.158;5.372;2022-10-16T02:21:51;13.30;99.90
15341;DHT22;7770;52.158;5.372;2022-10-16T02:24:56;13.20;99.90
15341;DHT22;7770;52.158;5.372;2022-10-16T02:33:32;13.10;99.90
15341;DHT22;7770;52.158;5.372;2022-10-16T02:36:19;13.00;99.90
15341;DHT22;7770;52.158;5.372;2022-10-16T02:39:06;13.00;99.90
15341;DHT22;7770;52.158;5.372;2022-10-16T02:41:52;12.90;99.90
15341;DHT22;7770;52.158;5.372;2022-10-16T02:44:38;12.90;99.90
15341;DHT22;7770;52.158;5.372;2022-10-16T02:47:24;12.80;99.90
15341;DHT22;7770;52.158;5.372;2022-10-16T02:50:11;12.80;99.90
15341;DHT22;7770;52.158;5.372;2022-10-16T02:52:57;12.70;99.90
15341;DHT22;7770;52.158;5.372;2022-10-16T02:55:42;12.80;99.90
15341;DHT22;7770;52.158;5.372;2022-10-16T02:58:29;12.80;99.90
15341;DHT22;7770;52.158;5.372;2022-10-16T03:01:15;12.80;99.90
15341;DHT22;7770;52.158;5.372;2022-10-16T03:04:02;12.80;99.90
15341;DHT22;7770;52.158;5.372;2022-10-16T03:06:48;12.80;99.90
15341;DHT22;7770;52.158;5.372;2022-10-16T03:09:34;12.90;99.90
15341;DHT22;7770;52.158;5.372;2022-10-16T03:12:20;12.90;99.90
15341;DHT22;7770;52.158;5.372;2022-10-16T03:15:07;12.90;99.90
15341;DHT22;7770;52.158;5.372;2022-10-16T03:17:57;12.90;99.90
15341;DHT22;7770;52.158;5.372;2022-10-16T03:20:44;12.90;99.90
15341;DHT22;7770;52.158;5.372;2022-10-16T03:23:30;12.90;99.90
15341;DHT22;7770;52.158;5.372;2022-10-16T03:26:16;12.90;99.90
15341;DHT22;7770;52.158;5.372;2022-10-16T03:29:02;12.80;99.90
15341;DHT22;7770;52.158;5.372;2022-10-16T03:31:48;12.80;99.90
15341;DHT22;7770;52.158;5.372;2022-10-16T03:34:35;12.70;99.90
15341;DHT22;7770;52.158;5.372;2022-10-16T03:37:21;12.70;99.90
15341;DHT22;7770;52.158;5.372;2022-10-16T03:40:07;12.70;99.90
15341;DHT22;7770;52.158;5.372;2022-10-16T03:42:53;12.70;99.90
15341;DHT22;7770;52.158;5.372;2022-10-16T03:45:43;12.70;99.90
15341;DHT22;7770;52.158;5.372;2022-10-16T03:48:29;12.70;99.90
15341;DHT22;7770;52.158;5.372;2022-10-16T03:51:15;12.50;99.90
15341;DHT22;7770;52.158;5.372;2022-10-16T03:54:01;12.50;99.90
15341;DHT22;7770;52.158;5.372;2022-10-16T03:56:48;12.50;99.90
15341;DHT22;7770;52.158;5.372;2022-10-16T03:59:34;12.40;99.90
15341;DHT22;7770;52.158;5.372;2022-10-16T04:02:20;12.40;99.90
15341;DHT22;7770;52.158;5.372;2022-10-16T04:05:06;12.40;99.90
15341;DHT22;7770;52.158;5.372;2022-10-16T04:07:53;12.40;99.90
15341;DHT22;7770;52.158;5.372;2022-10-16T04:10:39;12.40;99.90
15341;DHT22;7770;52.158;5.372;2022-10-16T04:13:25;12.40;99.90
15341;DHT22;7770;52.158;5.372;2022-10-16T04:16:11;12.40;99.90
15341;DHT22;7770;52.158;5.372;2022-10-16T04:18:57;12.40;99.90
15341;DHT22;7770;52.158;5.372;2022-10-16T04:21:43;12.40;99.90
15341;DHT22;7770;52.158;5.372;2022-10-16T04:24:30;12.40;99.90
15341;DHT22;7770;52.158;5.372;2022-10-16T04:27:16;12.40;99.90
15341;DHT22;7770;52.158;5.372;2022-10-16T04:30:02;12.40;99.90
15341;DHT22;7770;52.158;5.372;2022-10-16T04:32:52;12.40;99.90
15341;DHT22;7770;52.158;5.372;2022-10-16T04:35:38;12.40;99.90
15341;DHT22;7770;52.158;5.372;2022-10-16T04:38:24;12.40;99.90
15341;DHT22;7770;52.158;5.372;2022-10-16T04:41:11;12.50;99.90
15341;DHT22;7770;52.158;5.372;2022-10-16T04:43:57;12.40;99.90
15341;DHT22;7770;52.158;5.372;2022-10-16T04:46:43;12.40;99.90
15341;DHT22;7770;52.158;5.372;2022-10-16T04:49:30;12.40;99.90
15341;DHT22;7770;52.158;5.372;2022-10-16T04:52:16;12.40;99.90
15341;DHT22;7770;52.158;5.372;2022-10-16T04:55:03;12.40;99.90
15341;DHT22;7770;52.158;5.372;2022-10-16T04:57:49;12.40;99.90
15341;DHT22;7770;52.158;5.372;2022-10-16T05:00:35;12.40;99.90
15341;DHT22;7770;52.158;5.372;2022-10-16T05:03:22;12.30;99.90
15341;DHT22;7770;52.158;5.372;2022-10-16T05:06:08;12.30;99.90
15341;DHT22;7770;52.158;5.372;2022-10-16T05:08:54;12.30;99.90
15341;DHT22;7770;52.158;5.372;2022-10-16T05:11:40;12.20;99.90
15341;DHT22;7770;52.158;5.372;2022-10-16T05:14:26;12.20;99.90
15341;DHT22;7770;52.158;5.372;2022-10-16T05:17:12;12.20;99.90
15341;DHT22;7770;52.158;5.372;2022-10-16T05:19:58;12.20;99.90
15341;DHT22;7770;52.158;5.372;2022-10-16T05:22:44;12.10;99.90
15341;DHT22;7770;52.158;5.372;2022-10-16T05:25:30;12.20;99.90
15341;DHT22;7770;52.158;5.372;2022-10-16T05:28:16;12.10;99.90
15341;DHT22;7770;52.158;5.372;2022-10-16T05:31:08;12.10;99.90
15341;DHT22;7770;52.158;5.372;2022-10-16T05:34:02;12.00;99.90
15341;DHT22;7770;52.158;5.372;2022-10-16T05:36:48;12.10;99.90
15341;DHT22;7770;52.158;5.372;2022-10-16T05:39:34;12.10;99.90
15341;DHT22;7770;52.158;5.372;2022-10-16T05:42:20;12.00;99.90
15341;DHT22;7770;52.158;5.372;2022-10-16T05:45:08;12.10;99.90
15341;DHT22;7770;52.158;5.372;2022-10-16T05:47:55;12.10;99.90
15341;DHT22;7770;52.158;5.372;2022-10-16T05:50:41;12.20;99.90
15341;DHT22;7770;52.158;5.372;2022-10-16T05:53:29;12.20;99.90
15341;DHT22;7770;52.158;5.372;2022-10-16T05:56:16;12.30;99.90
15341;DHT22;7770;52.158;5.372;2022-10-16T05:59:04;12.30;99.90
15341;DHT22;7770;52.158;5.372;2022-10-16T06:01:50;12.30;99.90
15341;DHT22;7770;52.158;5.372;2022-10-16T06:04:36;12.40;99.90
15341;DHT22;7770;52.158;5.372;2022-10-16T06:07:22;12.40;99.90
15341;DHT22;7770;52.158;5.372;2022-10-16T06:10:09;12.40;99.90
15341;DHT22;7770;52.158;5.372;2022-10-16T06:12:55;12.50;99.90
15341;DHT22;7770;52.158;5.372;2022-10-16T06:15:42;12.50;99.90
15341;DHT22;7770;52.158;5.372;2022-10-16T06:18:29;12.40;99.90
15341;DHT22;7770;52.158;5.372;2022-10-16T06:21:21;12.40;99.90
15341;DHT22;7770;52.158;5.372;2022-10-16T06:24:11;12.50;99.90
15341;DHT22;7770;52.158;5.372;2022-10-16T06:26:57;12.50;99.90
15341;DHT22;7770;52.158;5.372;2022-10-16T06:29:43;12.50;99.90
15341;DHT22;7770;52.158;5.372;2022-10-16T06:32:30;12.50;99.90
15341;DHT22;7770;52.158;5.372;2022-10-16T06:35:16;12.60;99.90
15341;DHT22;7770;52.158;5.372;2022-10-16T06:38:02;12.60;99.90
15341;DHT22;7770;52.158;5.372;2022-10-16T06:40:48;12.60;99.90
15341;DHT22;7770;52.158;5.372;2022-10-16T06:43:34;12.50;99.90
15341;DHT22;7770;52.158;5.372;2022-10-16T06:46:24;12.50;99.90
15341;DHT22;7770;52.158;5.372;2022-10-16T06:49:10;12.50;99.90
15341;DHT22;7770;52.158;5.372;2022-10-16T06:51:56;12.50;99.90
15341;DHT22;7770;52.158;5.372;2022-10-16T06:54:42;12.60;99.90
15341;DHT22;7770;52.158;5.372;2022-10-16T06:57:28;12.60;99.90
15341;DHT22;7770;52.158;5.372;2022-10-16T07:00:14;12.60;99.90
15341;DHT22;7770;52.158;5.372;2022-10-16T07:03:00;12.60;99.90
15341;DHT22;7770;52.158;5.372;2022-10-16T07:05:46;12.60;99.90
15341;DHT22;7770;52.158;5.372;2022-10-16T07:08:33;12.70;99.90
15341;DHT22;7770;52.158;5.372;2022-10-16T07:11:22;12.80;99.90
15341;DHT22;7770;52.158;5.372;2022-10-16T07:14:16;12.90;99.90
15341;DHT22;7770;52.158;5.372;2022-10-16T07:17:02;13.00;99.90
15341;DHT22;7770;52.158;5.372;2022-10-16T07:19:48;13.10;99.90
15341;DHT22;7770;52.158;5.372;2022-10-16T07:22:35;13.10;99.90
15341;DHT22;7770;52.158;5.372;2022-10-16T07:25:21;13.10;99.90
15341;DHT22;7770;52.158;5.372;2022-10-16T07:28:07;13.20;99.90
15341;DHT22;7770;52.158;5.372;2022-10-16T07:30:53;13.20;99.90
15341;DHT22;7770;52.158;5.372;2022-10-16T07:33:40;13.30;99.90
15341;DHT22;7770;52.158;5.372;2022-10-16T07:36:30;13.40;99.90
15341;DHT22;7770;52.158;5.372;2022-10-16T07:39:17;13.60;99.90
15341;DHT22;7770;52.158;5.372;2022-10-16T07:42:03;13.60;99.90
15341;DHT22;7770;52.158;5.372;2022-10-16T07:44:49;13.60;99.90
15341;DHT22;7770;52.158;5.372;2022-10-16T07:47:35;13.60;99.90
15341;DHT22;7770;52.158;5.372;2022-10-16T07:50:21;13.60;99.90
15341;DHT22;7770;52.158;5.372;2022-10-16T07:53:07;13.70;99.90
15341;DHT22;7770;52.158;5.372;2022-10-16T07:56:01;13.70;99.90
15341;DHT22;7770;52.158;5.372;2022-10-16T07:58:49;13.80;99.90
15341;DHT22;7770;52.158;5.372;2022-10-16T08:01:35;14.40;99.90
15341;DHT22;7770;52.158;5.372;2022-10-16T08:04:21;14.60;99.90
15341;DHT22;7770;52.158;5.372;2022-10-16T08:07:07;15.10;99.90
15341;DHT22;7770;52.158;5.372;2022-10-16T08:09:54;15.80;99.90
15341;DHT22;7770;52.158;5.372;2022-10-16T08:12:42;16.60;99.90
15341;DHT22;7770;52.158;5.372;2022-10-16T08:15:28;18.20;99.90
15341;DHT22;7770;52.158;5.372;2022-10-16T08:18:14;18.80;99.90
15341;DHT22;7770;52.158;5.372;2022-10-16T08:21:01;19.60;99.90
15341;DHT22;7770;52.158;5.372;2022-10-16T08:23:48;20.30;99.90
15341;DHT22;7770;52.158;5.372;2022-10-16T08:26:34;20.10;99.90
15341;DHT22;7770;52.158;5.372;2022-10-16T08:29:20;20.30;99.90
15341;DHT22;7770;52.158;5.372;2022-10-16T08:32:06;21.20;99.90
15341;DHT22;7770;52.158;5.372;2022-10-16T08:34:52;21.20;99.90
15341;DHT22;7770;52.158;5.372;2022-10-16T08:37:39;20.70;99.90
15341;DHT22;7770;52.158;5.372;2022-10-16T08:40:28;21.10;99.90
15341;DHT22;7770;52.158;5.372;2022-10-16T08:49:14;23.10;99.90
15341;DHT22;7770;52.158;5.372;2022-10-16T08:52:00;23.60;99.90
15341;DHT22;7770;52.158;5.372;2022-10-16T08:54:50;23.50;99.90
15341;DHT22;7770;52.158;5.372;2022-10-16T08:57:37;23.90;99.90
15341;DHT22;7770;52.158;5.372;2022-10-16T09:00:23;22.50;99.90
15341;DHT22;7770;52.158;5.372;2022-10-16T09:06:52;23.60;99.90
15341;DHT22;7770;52.158;5.372;2022-10-16T09:10:14;24.20;99.90
15341;DHT22;7770;52.158;5.372;2022-10-16T09:13:19;24.40;99.90
15341;DHT22;7770;52.158;5.372;2022-10-16T09:16:23;25.70;99.90
15341;DHT22;7770;52.158;5.372;2022-10-16T09:19:23;26.20;99.90
15341;DHT22;7770;52.158;5.372;2022-10-16T09:22:15;26.00;99.90
15341;DHT22;7770;52.158;5.372;2022-10-16T09:25:12;25.90;99.90
15341;DHT22;7770;52.158;5.372;2022-10-16T09:28:05;27.00;99.80
15341;DHT22;7770;52.158;5.372;2022-10-16T09:30:53;27.10;99.10
15341;DHT22;7770;52.158;5.372;2022-10-16T09:33:40;26.90;98.80
15341;DHT22;7770;52.158;5.372;2022-10-16T09:36:28;27.20;98.00
15341;DHT22;7770;52.158;5.372;2022-10-16T09:39:14;27.30;98.00
15341;DHT22;7770;52.158;5.372;2022-10-16T09:42:00;24.80;99.80
15341;DHT22;7770;52.158;5.372;2022-10-16T09:44:51;22.50;99.90
15341;DHT22;7770;52.158;5.372;2022-10-16T09:47:41;21.20;99.90
15341;DHT22;7770;52.158;5.372;2022-10-16T09:50:28;20.40;99.90
15341;DHT22;7770;52.158;5.372;2022-10-16T09:53:15;21.30;99.90
15341;DHT22;7770;52.158;5.372;2022-10-16T09:56:03;23.10;99.90
15341;DHT22;7770;52.158;5.372;2022-10-16T09:58:56;22.10;99.90
15341;DHT22;7770;52.158;5.372;2022-10-16T10:01:51;22.90;99.90
15341;DHT22;7770;52.158;5.372;2022-10-16T10:04:41;25.60;99.90
15341;DHT22;7770;52.158;5.372;2022-10-16T10:07:39;24.80;99.80
15341;DHT22;7770;52.158;5.372;2022-10-16T10:10:30;25.00;99.90
15341;DHT22;7770;52.158;5.372;2022-10-16T10:13:22;24.50;99.70
15341;DHT22;7770;52.158;5.372;2022-10-16T10:16:10;23.30;99.90
15341;DHT22;7770;52.158;5.372;2022-10-16T10:18:59;25.10;99.90
15341;DHT22;7770;52.158;5.372;2022-10-16T10:21:47;27.30;98.70
15341;DHT22;7770;52.158;5.372;2022-10-16T10:24:33;27.20;97.40
15341;DHT22;7770;52.158;5.372;2022-10-16T10:27:19;26.60;97.90
15341;DHT22;7770;52.158;5.372;2022-10-16T10:33:29;26.00;97.50
15341;DHT22;7770;52.158;5.372;2022-10-16T10:36:41;24.20;99.20
15341;DHT22;7770;52.158;5.372;2022-10-16T10:39:32;24.90;98.80
15341;DHT22;7770;52.158;5.372;2022-10-16T10:46:03;23.50;99.90
15341;DHT22;7770;52.158;5.372;2022-10-16T10:58:24;22.70;99.80
15341;DHT22;7770;52.158;5.372;2022-10-16T11:01:16;21.00;99.90
15341;DHT22;7770;52.158;5.372;2022-10-16T11:04:30;20.90;99.90
15341;DHT22;7770;52.158;5.372;2022-10-16T11:07:30;21.40;99.90
15341;DHT22;7770;52.158;5.372;2022-10-16T11:10:27;24.40;99.70
15341;DHT22;7770;52.158;5.372;2022-10-16T11:13:29;25.30;98.50
15341;DHT22;7770;52.158;5.372;2022-10-16T11:16:54;26.20;97.10
15341;DHT22;7770;52.158;5.372;2022-10-16T11:19:54;23.80;97.70
15341;DHT22;7770;52.158;5.372;2022-10-16T11:22:47;23.60;99.00
15341;DHT22;7770;52.158;5.372;2022-10-16T11:25:48;24.40;98.70
15341;DHT22;7770;52.158;5.372;2022-10-16T11:28:45;24.70;98.30
15341;DHT22;7770;52.158;5.372;2022-10-16T11:31:50;24.20;99.90
15341;DHT22;7770;52.158;5.372;2022-10-16T11:34:45;24.10;98.50
15341;DHT22;7770;52.158;5.372;2022-10-16T11:37:41;22.90;99.70
15341;DHT22;7770;52.158;5.372;2022-10-16T11:40:31;24.60;96.90
15341;DHT22;7770;52.158;5.372;2022-10-16T11:43:28;26.60;95.20
15341;DHT22;7770;52.158;5.372;2022-10-16T11:46:21;28.20;93.40
15341;DHT22;7770;52.158;5.372;2022-10-16T11:49:15;27.40;93.80
15341;DHT22;7770;52.158;5.372;2022-10-16T11:55:21;24.30;96.30
15341;DHT22;7770;52.158;5.372;2022-10-16T12:01:33;24.30;97.30
15341;DHT22;7770;52.158;5.372;2022-10-16T12:04:43;25.20;95.10
15341;DHT22;7770;52.158;5.372;2022-10-16T12:07:41;24.70;95.00
15341;DHT22;7770;52.158;5.372;2022-10-16T12:10:34;25.20;95.90
15341;DHT22;7770;52.158;5.372;2022-10-16T12:13:33;25.10;96.00
15341;DHT22;7770;52.158;5.372;2022-10-16T12:16:23;24.10;96.80
15341;DHT22;7770;52.158;5.372;2022-10-16T12:19:15;24.10;97.20
15341;DHT22;7770;52.158;5.372;2022-10-16T12:22:02;25.40;96.70
15341;DHT22;7770;52.158;5.372;2022-10-16T12:24:51;26.20;95.50
15341;DHT22;7770;52.158;5.372;2022-10-16T12:27:38;25.10;96.10
15341;DHT22;7770;52.158;5.372;2022-10-16T12:30:26;23.70;97.10
15341;DHT22;7770;52.158;5.372;2022-10-16T12:33:22;23.10;97.70
15341;DHT22;7770;52.158;5.372;2022-10-16T12:36:28;22.20;98.10
15341;DHT22;7770;52.158;5.372;2022-10-16T12:39:22;21.50;99.20
15341;DHT22;7770;52.158;5.372;2022-10-16T12:45:32;20.50;99.90
15341;DHT22;7770;52.158;5.372;2022-10-16T12:48:21;20.20;99.90
15341;DHT22;7770;52.158;5.372;2022-10-16T12:51:24;20.10;99.90
15341;DHT22;7770;52.158;5.372;2022-10-16T12:54:15;20.20;99.90
15341;DHT22;7770;52.158;5.372;2022-10-16T12:57:41;20.20;99.90
15341;DHT22;7770;52.158;5.372;2022-10-16T13:04:18;20.20;99.90
15341;DHT22;7770;52.158;5.372;2022-10-16T13:10:27;19.60;99.90
15341;DHT22;7770;52.158;5.372;2022-10-16T13:20:55;19.40;99.90
15341;DHT22;7770;52.158;5.372;2022-10-16T13:30:27;19.40;99.90
15341;DHT22;7770;52.158;5.372;2022-10-16T13:33:21;19.20;99.90
15341;DHT22;7770;52.158;5.372;2022-10-16T13:36:21;19.10;99.90
15341;DHT22;7770;52.158;5.372;2022-10-16T13:39:14;19.20;99.90
15341;DHT22;7770;52.158;5.372;2022-10-16T13:42:09;19.20;99.90
15341;DHT22;7770;52.158;5.372;2022-10-16T13:44:58;19.30;99.90
15341;DHT22;7770;52.158;5.372;2022-10-16T13:47:44;19.20;99.90
15341;DHT22;7770;52.158;5.372;2022-10-16T13:50:30;19.20;99.90
15341;DHT22;7770;52.158;5.372;2022-10-16T13:53:16;19.20;99.90
15341;DHT22;7770;52.158;5.372;2022-10-16T13:56:09;19.30;99.90
15341;DHT22;7770;52.158;5.372;2022-10-16T13:59:00;19.10;99.90
15341;DHT22;7770;52.158;5.372;2022-10-16T14:01:48;19.00;99.90
15341;DHT22;7770;52.158;5.372;2022-10-16T14:04:38;19.00;99.90
15341;DHT22;7770;52.158;5.372;2022-10-16T14:07:27;19.00;99.90
15341;DHT22;7770;52.158;5.372;2022-10-16T14:10:27;19.10;99.90
15341;DHT22;7770;52.158;5.372;2022-10-16T14:13:28;19.00;99.90
15341;DHT22;7770;52.158;5.372;2022-10-16T14:16:21;18.90;99.90
15341;DHT22;7770;52.158;5.372;2022-10-16T14:19:28;18.80;99.90
15341;DHT22;7770;52.158;5.372;2022-10-16T14:22:36;18.70;99.90
15341;DHT22;7770;52.158;5.372;2022-10-16T14:25:28;18.50;99.90
15341;DHT22;7770;52.158;5.372;2022-10-16T14:28:23;18.40;99.90
15341;DHT22;7770;52.158;5.372;2022-10-16T14:31:29;18.30;99.90
15341;DHT22;7770;52.158;5.372;2022-10-16T14:34:24;18.30;99.90
15341;DHT22;7770;52.158;5.372;2022-10-16T14:37:50;18.30;99.90
15341;DHT22;7770;52.158;5.372;2022-10-16T14:40:31;18.20;99.90
15341;DHT22;7770;52.158;5.372;2022-10-16T14:43:24;18.20;99.90
15341;DHT22;7770;52.158;5.372;2022-10-16T14:46:18;18.20;99.90
15341;DHT22;7770;52.158;5.372;2022-10-16T14:51:55;18.10;99.90
15341;DHT22;7770;52.158;5.372;2022-10-16T14:54:41;18.10;99.90
15341;DHT22;7770;52.158;5.372;2022-10-16T14:57:35;18.10;99.90
15341;DHT22;7770;52.158;5.372;2022-10-16T15:00:23;18.10;99.90
15341;DHT22;7770;52.158;5.372;2022-10-16T15:03:09;18.00;99.90
15341;DHT22;7770;52.158;5.372;2022-10-16T15:05:55;17.90;99.90
15341;DHT22;7770;52.158;5.372;2022-10-16T15:08:42;17.80;99.90
15341;DHT22;7770;52.158;5.372;2022-10-16T15:11:28;17.80;99.90
15341;DHT22;7770;52.158;5.372;2022-10-16T15:14:14;17.80;99.90
15341;DHT22;7770;52.158;5.372;2022-10-16T15:17:00;17.70;99.90
15341;DHT22;7770;52.158;5.372;2022-10-16T15:19:46;17.70;99.90
15341;DHT22;7770;52.158;5.372;2022-10-16T15:22:32;17.70;99.90
15341;DHT22;7770;52.158;5.372;2022-10-16T15:25:39;17.60;99.90
15341;DHT22;7770;52.158;5.372;2022-10-16T15:28:27;17.50;99.90
15341;DHT22;7770;52.158;5.372;2022-10-16T15:31:14;17.50;99.90
15341;DHT22;7770;52.158;5.372;2022-10-16T15:34:00;17.30;99.90
15341;DHT22;7770;52.158;5.372;2022-10-16T15:36:49;17.20;99.90
15341;DHT22;7770;52.158;5.372;2022-10-16T15:39:35;17.10;99.90
15341;DHT22;7770;52.158;5.372;2022-10-16T15:42:21;17.00;99.90
15341;DHT22;7770;52.158;5.372;2022-10-16T15:45:09;16.90;99.90
15341;DHT22;7770;52.158;5.372;2022-10-16T15:47:56;16.90;99.90
15341;DHT22;7770;52.158;5.372;2022-10-16T15:50:42;16.80;99.90
15341;DHT22;7770;52.158;5.372;2022-10-16T15:53:28;16.70;99.90
15341;DHT22;7770;52.158;5.372;2022-10-16T15:56:14;16.70;99.90
15341;DHT22;7770;52.158;5.372;2022-10-16T15:59:00;16.60;99.90
15341;DHT22;7770;52.158;5.372;2022-10-16T16:01:47;16.60;99.90
15341;DHT22;7770;52.158;5.372;2022-10-16T16:04:33;16.50;99.90
15341;DHT22;7770;52.158;5.372;2022-10-16T16:07:19;16.50;99.90
15341;DHT22;7770;52.158;5.372;2022-10-16T16:10:07;16.40;99.90
15341;DHT22;7770;52.158;5.372;2022-10-16T16:12:54;16.40;99.90
15341;DHT22;7770;52.158;5.372;2022-10-16T16:15:40;16.30;99.90
15341;DHT22;7770;52.158;5.372;2022-10-16T16:18:26;16.30;99.90
15341;DHT22;7770;52.158;5.372;2022-10-16T16:21:14;16.20;99.90
15341;DHT22;7770;52.158;5.372;2022-10-16T16:24:00;16.20;99.90
15341;DHT22;7770;52.158;5.372;2022-10-16T16:26:46;16.10;99.90
15341;DHT22;7770;52.158;5.372;2022-10-16T16:29:32;16.10;99.90
15341;DHT22;7770;52.158;5.372;2022-10-16T16:32:18;16.10;99.90
15341;DHT22;7770;52.158;5.372;2022-10-16T16:35:05;16.10;99.90
15341;DHT22;7770;52.158;5.372;2022-10-16T16:37:51;16.10;99.90
15341;DHT22;7770;52.158;5.372;2022-10-16T16:40:37;16.00;99.90
15341;DHT22;7770;52.158;5.372;2022-10-16T16:43:27;16.00;99.90
15341;DHT22;7770;52.158;5.372;2022-10-16T16:46:14;15.90;99.90
15341;DHT22;7770;52.158;5.372;2022-10-16T16:49:01;15.70;99.90
15341;DHT22;7770;52.158;5.372;2022-10-16T16:51:47;15.60;99.90
15341;DHT22;7770;52.158;5.372;2022-10-16T16:54:33;15.50;99.90
15341;DHT22;7770;52.158;5.372;2022-10-16T16:57:20;15.40;99.90
15341;DHT22;7770;52.158;5.372;2022-10-16T17:00:07;15.40;99.90
15341;DHT22;7770;52.158;5.372;2022-10-16T17:02:53;15.30;99.90
15341;DHT22;7770;52.158;5.372;2022-10-16T17:05:39;15.20;99.90
15341;DHT22;7770;52.158;5.372;2022-10-16T17:08:26;15.10;99.90
15341;DHT22;7770;52.158;5.372;2022-10-16T17:11:15;15.10;99.90
15341;DHT22;7770;52.158;5.372;2022-10-16T17:14:02;15.00;99.90
15341;DHT22;7770;52.158;5.372;2022-10-16T17:16:48;15.00;99.90
15341;DHT22;7770;52.158;5.372;2022-10-16T17:19:34;15.00;99.90
15341;DHT22;7770;52.158;5.372;2022-10-16T17:22:21;15.10;99.90
15341;DHT22;7770;52.158;5.372;2022-10-16T17:25:07;15.00;99.90
15341;DHT22;7770;52.158;5.372;2022-10-16T17:27:53;15.00;99.90
15341;DHT22;7770;52.158;5.372;2022-10-16T17:30:40;15.00;99.90
15341;DHT22;7770;52.158;5.372;2022-10-16T17:33:26;15.00;99.90
15341;DHT22;7770;52.158;5.372;2022-10-16T17:36:13;15.00;99.90
15341;DHT22;7770;52.158;5.372;2022-10-16T17:39:01;15.10;99.90
15341;DHT22;7770;52.158;5.372;2022-10-16T17:41:49;15.00;99.90
15341;DHT22;7770;52.158;5.372;2022-10-16T17:44:35;14.90;99.90
15341;DHT22;7770;52.158;5.372;2022-10-16T17:47:21;15.00;99.90
15341;DHT22;7770;52.158;5.372;2022-10-16T17:50:07;15.00;99.90
15341;DHT22;7770;52.158;5.372;2022-10-16T17:52:53;15.00;99.90
15341;DHT22;7770;52.158;5.372;2022-10-16T17:55:40;15.00;99.90
15341;DHT22;7770;52.158;5.372;2022-10-16T17:58:27;14.90;99.90
15341;DHT22;7770;52.158;5.372;2022-10-16T18:01:18;14.90;99.90
15341;DHT22;7770;52.158;5.372;2022-10-16T18:04:08;14.90;99.90
15341;DHT22;7770;52.158;5.372;2022-10-16T18:06:57;14.90;99.90
15341;DHT22;7770;52.158;5.372;2022-10-16T18:09:45;14.80;99.90
15341;DHT22;7770;52.158;5.372;2022-10-16T18:12:31;14.80;99.90
15341;DHT22;7770;52.158;5.372;2022-10-16T18:15:17;14.70;99.90
15341;DHT22;7770;52.158;5.372;2022-10-16T18:18:03;14.90;99.90
15341;DHT22;7770;52.158;5.372;2022-10-16T18:20:59;15.00;99.90
15341;DHT22;7770;52.158;5.372;2022-10-16T18:23:47;15.10;99.90
15341;DHT22;7770;52.158;5.372;2022-10-16T18:26:33;15.00;99.90
15341;DHT22;7770;52.158;5.372;2022-10-16T18:29:19;15.00;99.90
15341;DHT22;7770;52.158;5.372;2022-10-16T18:32:05;15.10;99.90
15341;DHT22;7770;52.158;5.372;2022-10-16T18:34:51;15.00;99.90
15341;DHT22;7770;52.158;5.372;2022-10-16T18:37:38;14.90;99.90
15341;DHT22;7770;52.158;5.372;2022-10-16T18:40:24;14.80;99.90
15341;DHT22;7770;52.158;5.372;2022-10-16T18:43:10;14.80;99.90
15341;DHT22;7770;52.158;5.372;2022-10-16T18:46:03;14.80;99.90
15341;DHT22;7770;52.158;5.372;2022-10-16T18:48:51;14.70;99.90
15341;DHT22;7770;52.158;5.372;2022-10-16T18:51:40;14.70;99.90
15341;DHT22;7770;52.158;5.372;2022-10-16T18:54:26;14.70;99.90
15341;DHT22;7770;52.158;5.372;2022-10-16T18:57:12;14.70;99.90
15341;DHT22;7770;52.158;5.372;2022-10-16T18:59:58;14.70;99.90
15341;DHT22;7770;52.158;5.372;2022-10-16T19:02:44;14.70;99.90
15341;DHT22;7770;52.158;5.372;2022-10-16T19:05:32;14.80;99.90
15341;DHT22;7770;52.158;5.372;2022-10-16T19:08:18;14.80;99.90
15341;DHT22;7770;52.158;5.372;2022-10-16T19:11:19;14.80;99.90
15341;DHT22;7770;52.158;5.372;2022-10-16T19:14:07;14.70;99.90
15341;DHT22;7770;52.158;5.372;2022-10-16T19:16:54;14.70;99.90
15341;DHT22;7770;52.158;5.372;2022-10-16T19:19:40;14.60;99.90
15341;DHT22;7770;52.158;5.372;2022-10-16T19:22:26;14.60;99.90
15341;DHT22;7770;52.158;5.372;2022-10-16T19:25:15;14.50;99.90
15341;DHT22;7770;52.158;5.372;2022-10-16T19:28:01;14.50;99.90